Time;durP1;ratioP1;P1;durP2;ratioP2;P2;SDS_P1;SDS_P2;PMS_P1;PMS_P2;Temp;Humidity;BMP_temperature;BMP_pressure;BME280_temperature;BME280_humidity;BME280_pressure;Samples;Min_cycle;Max_cycle;Signal;HPM_P1;HPM_P2
2021/06/01 08:24:00;;;;;;;13.45;4.53;;;;;;;;;;5207051;27;20149;-57
2021/06/01 08:26:35;;;;;;;17.45;3.88;;;;;;;;;;5125111;28;20272;-56
2021/06/01 08:29:08;;;;;;;5.30;3.90;;;;;;;;;;5135055;28;20073;-57
2021/06/01 08:31:41;;;;;;;8.50;3.95;;;;;;;;;;5145016;28;20049;-56
2021/06/01 08:34:15;;;;;;;20.73;4.05;;;;;;;;;;5129068;28;20557;-61
2021/06/01 08:36:49;;;;;;;13.32;3.92;;;;;;;;;;5139012;28;20058;-60
2021/06/01 08:39:26;;;;;;;9.65;4.32;;;;;;;;;;5148552;28;20072;-57
2021/06/01 08:41:59;;;;;;;9.52;3.80;;;;;;;;;;5149723;28;20747;-60
2021/06/01 08:44:33;;;;;;;8.90;4.00;;;;;;;;;;5158477;28;20049;-60
2021/06/01 08:47:10;;;;;;;7.13;3.35;;;;;;;;;;5146059;28;20647;-60
2021/06/01 08:49:43;;;;;;;9.25;3.63;;;;;;;;;;5145977;28;20041;-59
2021/06/01 08:52:16;;;;;;;9.00;3.78;;;;;;;;;;5139149;28;20053;-60
2021/06/01 08:54:50;;;;;;;15.48;4.63;;;;;;;;;;5143031;28;20053;-56
2021/06/01 08:57:23;;;;;;;14.70;3.97;;;;;;;;;;5126831;28;20053;-53
2021/06/01 08:59:56;;;;;;;9.75;3.25;;;;;;;;;;5141596;28;20545;-57
2021/06/01 09:02:29;;;;;;;11.30;3.90;;;;;;;;;;5148678;28;20041;-57
2021/06/01 09:05:05;;;;;;;11.38;3.95;;;;;;;;;;5148336;28;21041;-57
2021/06/01 09:07:54;;;;;;;21.50;4.82;;;;;;;;;;5139851;28;20478;-54
2021/06/01 09:22:32;;;;;;;7.40;3.30;;;;;;;;;;5154078;28;20296;-57
2021/06/01 09:25:05;;;;;;;8.13;3.55;;;;;;;;;;5127032;28;20957;-56
2021/06/01 09:27:51;;;;;;;8.18;3.47;;;;;;;;;;5110185;28;20045;-56
2021/06/01 09:30:38;;;;;;;8.25;3.58;;;;;;;;;;5127508;28;20042;-60
2021/06/01 09:33:15;;;;;;;10.68;3.45;;;;;;;;;;5120119;28;25867;-56
2021/06/01 09:35:54;;;;;;;8.13;3.47;;;;;;;;;;5111970;28;21351;-59
2021/06/01 09:38:45;;;;;;;6.90;3.00;;;;;;;;;;5110401;28;20050;-60
2021/06/01 09:41:28;;;;;;;5.80;3.15;;;;;;;;;;5111173;28;20057;-60
2021/06/01 09:44:02;;;;;;;7.90;3.30;;;;;;;;;;5110764;28;20057;-58
2021/06/01 09:46:45;;;;;;;11.80;3.00;;;;;;;;;;5098126;28;20058;-56
2021/06/01 09:49:18;;;;;;;13.48;3.85;;;;;;;;;;5102508;28;20053;-59
2021/06/01 09:51:56;;;;;;;12.40;3.07;;;;;;;;;;5104994;28;20057;-64
2021/06/01 09:54:45;;;;;;;11.68;3.28;;;;;;;;;;5089882;28;20819;-58
2021/06/01 09:57:25;;;;;;;11.20;3.60;;;;;;;;;;5113135;28;20050;-58
2021/06/01 10:00:17;;;;;;;8.52;3.60;;;;;;;;;;5097035;28;20065;-60
2021/06/01 10:02:52;;;;;;;6.47;3.38;;;;;;;;;;5099871;28;20042;-58
2021/06/01 10:05:26;;;;;;;9.73;3.10;;;;;;;;;;5088862;28;20502;-58
2021/06/01 10:08:00;;;;;;;8.25;3.45;;;;;;;;;;5101970;28;20564;-59
2021/06/01 10:10:33;;;;;;;4.45;2.97;;;;;;;;;;5094724;28;22594;-59
2021/06/01 10:13:07;;;;;;;8.32;3.10;;;;;;;;;;5096350;28;20521;-60
2021/06/01 10:15:40;;;;;;;10.02;3.42;;;;;;;;;;5095176;28;20041;-56
2021/06/01 10:18:16;;;;;;;10.82;3.17;;;;;;;;;;5095610;28;20661;-58
2021/06/01 10:20:50;;;;;;;9.80;3.13;;;;;;;;;;5108594;28;20049;-59
2021/06/01 10:23:28;;;;;;;9.75;3.53;;;;;;;;;;5125899;28;20044;-57
2021/06/01 10:26:02;;;;;;;13.10;3.47;;;19.90;48.00;;;;;;5128494;28;21835;-56
2021/06/01 10:28:43;;;;;;;18.23;3.55;;;22.10;49.00;;;;;;5138985;28;20057;-66
2021/06/01 10:31:18;;;;;;;14.73;3.30;;;22.10;48.00;;;;;;5133459;28;20046;-68
2021/06/01 10:33:59;;;;;;;8.05;3.67;;;22.00;47.70;;;;;;5131772;28;20049;-62
2021/06/01 10:51:26;;;;;;;9.50;2.83;;;21.70;49.10;;;;;;5122432;28;20038;-61
2021/06/01 10:53:59;;;;;;;11.30;4.03;;;21.70;49.20;;;;;;5132372;28;20054;-64
2021/06/01 10:56:46;;;;;;;7.00;4.00;;;21.60;49.20;;;;;;5133081;28;20060;-62
2021/06/01 10:59:18;;;;;;;6.97;3.17;;;21.60;49.30;;;;;;5118927;28;20315;-63
2021/06/01 11:02:10;;;;;;;7.63;2.70;;;21.60;49.30;;;;;;5122985;28;20064;-62
2021/06/01 11:05:12;;;;;;;9.95;3.75;;;21.60;49.10;;;;;;5122804;28;20049;-62
2021/06/01 11:33:29;;;;;;;10.75;4.10;;;;;;;;;;5141058;28;20913;-58
2021/06/01 11:36:07;;;;;;;15.93;3.53;;;;;;;;;;5153619;28;20052;-65
2021/06/01 11:43:52;;;;;;;11.98;3.50;;;;;;;;;;5185935;28;20059;-62
2021/06/01 11:46:30;;;;;;;12.93;3.70;;;;;;;;;;5196102;27;20036;-64
2021/06/01 11:52:58;;;;;;;11.98;3.58;;;;;;;;;;5201398;27;20383;-53
2021/06/01 11:55:31;;;;;;;19.48;3.83;;;;;;;;;;5140356;28;20060;-50
2021/06/01 12:03:59;;;;;;;12.50;3.95;;;;;;;;;;5143405;28;20958;-51
2021/06/01 12:13:08;;;;;;;6.97;3.40;;;;;;;;;;5138242;28;20475;-53
2021/06/01 12:18:37;;;;;;;8.85;4.00;;;;;;;;;;5134085;28;20045;-53
2021/06/01 12:21:17;;;;;;;6.72;4.22;;;;;;;;;;5142926;28;20389;-49
2021/06/01 12:24:09;;;;;;;11.20;3.70;;;;;;;;;;5135831;28;20147;-55
2021/06/01 12:27:15;;;;;;;8.95;3.83;;;;;;;;;;5121982;28;20064;-53
2021/06/01 12:32:31;;;;;;;11.43;3.83;;;;;;;;;;5139316;28;20060;-55
2021/06/01 12:43:44;;;;;;;6.63;2.65;;;;;;;;;;5132114;28;20096;-50
2021/06/01 13:20:54;;;;;;;8.15;3.75;;;;;;;;;;5130630;28;20050;-61
2021/06/01 13:46:23;;;;;;;10.65;3.75;;;;;;;;;;5129517;28;20677;-62
2021/06/01 13:49:11;;;;;;;6.93;3.22;;;;;;;;;;5128026;28;20048;-62
2021/06/01 16:22:40;;;;;;;9.23;5.85;;;;;;;;;;5122345;28;21223;-57
2021/06/01 16:42:29;;;;;;;9.93;6.10;;;;;;;;;;5137899;28;20548;-59
2021/06/01 17:05:30;;;;;;;20.80;5.03;;;;;;;;;;5142628;28;20042;-59
2021/06/01 17:11:16;;;;;;;13.80;4.63;;;;;;;;;;5139482;28;20052;-60
2021/06/01 17:13:59;;;;;;;10.35;4.15;;;;;;;;;;5145762;28;20052;-61
2021/06/01 17:22:35;;;;;;;14.95;4.75;;;;;;;;;;5141661;28;20052;-60
2021/06/01 17:31:15;;;;;;;6.80;2.90;;;;;;;;;;5139802;28;20931;-61
2021/06/01 17:36:40;;;;;;;9.30;3.65;;;;;;;;;;5152625;28;20049;-59
2021/06/01 17:39:13;;;;;;;7.88;3.40;;;;;;;;;;5144141;28;20419;-61
2021/06/01 17:41:48;;;;;;;9.55;3.25;;;;;;;;;;5145342;28;20057;-62
2021/06/01 17:44:23;;;;;;;7.28;3.30;;;;;;;;;;5157004;28;20045;-59
2021/06/01 17:47:24;;;;;;;6.72;3.15;;;;;;;;;;5152533;28;20072;-60
2021/06/01 17:49:58;;;;;;;10.60;3.28;;;;;;;;;;5151829;28;20053;-59
2021/06/01 17:52:33;;;;;;;6.13;2.60;;;;;;;;;;5148900;28;20241;-59
2021/06/01 17:55:07;;;;;;;3.78;2.70;;;;;;;;;;5132548;28;20046;-59
2021/06/01 17:57:41;;;;;;;4.75;2.72;;;;;;;;;;5140642;28;20618;-59
2021/06/01 18:00:14;;;;;;;5.32;3.00;;;;;;;;;;5144465;28;20049;-59
2021/06/01 18:02:48;;;;;;;6.05;3.30;;;;;;;;;;5144604;28;20073;-60
2021/06/01 18:05:23;;;;;;;6.07;2.80;;;;;;;;;;5141056;28;20057;-60
2021/06/01 18:08:33;;;;;;;4.28;2.88;;;;;;;;;;5130568;28;20577;-61
2021/06/01 18:11:33;;;;;;;8.73;3.78;;;;;;;;;;5140265;28;20068;-60
2021/06/01 18:14:06;;;;;;;6.13;2.58;;;;;;;;;;5142813;28;20042;-60
2021/06/01 19:28:50;;;;;;;6.07;2.22;;;;;;;;;;5168055;28;20531;-53
2021/06/01 19:51:43;;;;;;;7.03;2.33;;;;;;;;;;5181119;28;20593;-63
2021/06/01 19:54:22;;;;;;;9.18;2.13;;;;;;;;;;5180733;28;20222;-69
2021/06/01 19:56:55;;;;;;;6.38;2.47;;;;;;;;;;5176739;28;20758;-65
2021/06/01 19:59:28;;;;;;;6.45;2.15;;;;;;;;;;5195787;28;20711;-69
2021/06/01 20:02:01;;;;;;;6.78;2.10;;;;;;;;;;5178924;28;20450;-72
2021/06/01 20:04:35;;;;;;;5.22;2.05;;;;;;;;;;5186164;28;20609;-69
2021/06/01 20:07:07;;;;;;;7.23;2.00;;;;;;;;;;5196586;28;20393;-69
2021/06/01 20:09:41;;;;;;;4.57;1.87;;;;;;;;;;5191533;28;20044;-65
2021/06/01 20:12:14;;;;;;;4.25;2.13;;;;;;;;;;5191501;28;20049;-68
2021/06/01 20:14:47;;;;;;;2.60;1.83;;;;;;;;;;5196634;28;20041;-68
2021/06/01 20:17:25;;;;;;;7.03;2.15;;;;;;;;;;5184769;28;20515;-66
2021/06/01 20:19:59;;;;;;;5.88;2.20;;;;;;;;;;5184021;28;20519;-65
2021/06/01 20:22:33;;;;;;;5.75;2.15;;;;;;;;;;5184778;28;20977;-65
2021/06/01 20:25:06;;;;;;;3.75;2.30;;;;;;;;;;5200379;28;20412;-66
2021/06/01 20:27:45;;;;;;;3.97;1.92;;;;;;;;;;5199292;28;20071;-63
2021/06/01 20:30:36;;;;;;;10.15;2.75;;;22.60;63.60;;;;;;5185849;28;20056;-64
2021/06/01 20:33:12;;;;;;;10.00;2.28;;;22.50;63.90;;;;;;5190858;28;20052;-69
2021/06/01 20:35:51;;;;;;;19.73;3.33;;;22.90;51.30;;;;;;5173882;28;20051;-68
2021/06/01 20:39:53;;;;;;;6.95;2.40;;;23.30;53.30;;;;;;5140332;28;63232;-61
2021/06/01 20:42:27;;;;;;;14.43;2.65;;;23.30;50.60;;;;;;5136914;28;78571;-68
